Time;durP1;ratioP1;P1;durP2;ratioP2;P2;SDS_P1;SDS_P2;PMS_P1;PMS_P2;Temp;Humidity;BMP_temperature;BMP_pressure;BME280_temperature;BME280_humidity;BME280_pressure;Samples;Min_cycle;Max_cycle;Signal;HPM_P1;HPM_P2
2022/01/20 00:00:49;;;;;;;21.65;9.77;;;;;;;;;;5051944;28;20025;-67
2022/01/20 00:03:19;;;;;;;19.80;9.45;;;;;;;;;;5051790;28;20044;-69
2022/01/20 00:27:28;;;;;;;21.73;9.60;;;;;;;;;;5051710;28;20104;-68
2022/01/20 00:35:30;;;;;;;17.10;10.27;;;;;;;;;;5051517;28;20037;-68
2022/01/20 00:37:51;;;;;;;24.77;13.13;;;;;;;;;;5050837;28;20033;-69
2022/01/20 00:40:17;;;;;;;12.75;8.02;;;;;;;;;;5051484;28;20495;-68
2022/01/20 00:42:43;;;;;;;33.13;15.77;;;;;;;;;;5033183;28;20064;-68
2022/01/20 00:45:10;;;;;;;19.10;10.90;;;;;;;;;;5033593;28;20074;-69
2022/01/20 00:47:37;;;;;;;15.55;9.18;;;;;;;;;;5051917;28;20049;-68
2022/01/20 00:50:03;;;;;;;19.33;10.20;;;;;;;;;;5033442;28;20036;-68
2022/01/20 00:52:29;;;;;;;23.52;13.15;;;;;;;;;;5051413;28;20060;-68
2022/01/20 00:54:55;;;;;;;19.42;10.77;;;;;;;;;;5051638;28;20379;-68
2022/01/20 00:57:21;;;;;;;17.92;10.98;;;;;;;;;;5033468;28;20052;-68
2022/01/20 00:59:48;;;;;;;19.08;10.43;;;;;;;;;;5051428;28;20479;-68
2022/01/20 01:02:14;;;;;;;25.80;12.98;;;;;;;;;;5033433;28;20036;-69
2022/01/20 01:04:40;;;;;;;17.13;9.60;;;;;;;;;;5051267;28;20119;-69
2022/01/20 01:10:19;;;;;;;12.65;7.60;;;;;;;;;;5032726;28;20017;-69
2022/01/20 01:15:20;;;;;;;16.75;8.90;;;;;;;;;;5044338;28;20398;-68
2022/01/20 01:20:44;;;;;;;14.85;8.30;;;;;;;;;;5055146;28;20121;-69
2022/01/20 01:23:10;;;;;;;22.05;11.68;;;;;;;;;;5054571;28;20025;-68
2022/01/20 01:25:36;;;;;;;18.08;9.68;;;;;;;;;;5053412;28;20074;-68
2022/01/20 01:28:02;;;;;;;11.65;7.13;;;;;;;;;;5036854;28;20025;-69
2022/01/20 01:30:46;;;;;;;16.83;8.82;;;;;;;;;;5054537;28;20028;-69
2022/01/20 01:33:12;;;;;;;15.63;8.50;;;;;;;;;;5054684;28;20505;-69
2022/01/20 01:35:41;;;;;;;10.93;7.10;;;;;;;;;;5054905;28;20040;-68
2022/01/20 01:40:34;;;;;;;18.08;10.27;;;;;;;;;;5054556;28;20494;-68
2022/01/20 01:43:06;;;;;;;18.45;8.65;;;;;;;;;;5036160;28;20074;-69
2022/01/20 01:45:37;;;;;;;10.57;7.00;;;;;;;;;;5053387;28;20021;-68
2022/01/20 01:48:04;;;;;;;12.13;7.47;;;;;;;;;;5036821;28;20115;-68
2022/01/20 01:50:30;;;;;;;14.40;8.90;;;;;;;;;;5036510;28;20048;-69
2022/01/20 01:52:57;;;;;;;12.27;7.72;;;;;;;;;;5054386;28;20108;-69
2022/01/20 01:55:24;;;;;;;15.20;8.95;;;;;;;;;;5053356;28;20037;-69
2022/01/20 01:57:50;;;;;;;8.85;6.32;;;;;;;;;;5036380;28;20025;-69
2022/01/20 02:00:16;;;;;;;9.00;6.03;;;;;;;;;;5054187;28;20507;-68
2022/01/20 02:02:43;;;;;;;10.63;6.35;;;;;;;;;;5054064;28;20029;-70
2022/01/20 02:05:11;;;;;;;14.20;8.52;;;;;;;;;;5036202;28;20025;-68
2022/01/20 02:18:42;;;;;;;19.33;6.63;;;;;;;;;;5053490;28;20171;-68
2022/01/20 02:21:09;;;;;;;26.27;8.23;;;;;;;;;;5035866;28;20036;-68
2022/01/20 02:23:35;;;;;;;20.42;7.40;;;;;;;;;;5025838;28;20022;-68
2022/01/20 02:26:01;;;;;;;20.30;6.80;;;;;;;;;;5033742;28;20049;-68
2022/01/20 02:28:27;;;;;;;23.20;6.57;;;;;;;;;;5015945;28;20021;-70
2022/01/20 02:30:54;;;;;;;22.27;8.65;;;;;;;;;;5034232;28;20549;-68
2022/01/20 02:33:21;;;;;;;23.88;6.10;;;;;;;;;;5033661;28;20025;-68
2022/01/20 02:35:52;;;;;;;18.58;4.80;;;;;;;;;;5034289;28;20061;-68
2022/01/20 02:38:32;;;;;;;18.33;6.93;;;;;;;;;;5034104;28;20416;-69
2022/01/20 02:46:32;;;;;;;29.73;6.90;;;;;;;;;;5034177;28;20032;-68
2022/01/20 02:48:58;;;;;;;13.95;4.43;;;;;;;;;;5015877;28;20029;-67
2022/01/20 02:51:25;;;;;;;24.92;6.78;;;;;;;;;;5015629;28;20029;-68
2022/01/20 02:53:51;;;;;;;17.58;6.15;;;;;;;;;;5015217;28;20407;-68
2022/01/20 02:56:18;;;;;;;25.17;5.97;;;;;;;;;;5033215;28;20035;-68
2022/01/20 02:58:44;;;;;;;22.08;5.63;;;;;;;;;;5015429;28;20505;-68
2022/01/20 03:01:10;;;;;;;22.48;5.95;;;;;;;;;;5015333;28;20026;-68
2022/01/20 03:03:36;;;;;;;21.52;4.57;;;;;;;;;;5032910;28;20071;-67
2022/01/20 03:06:03;;;;;;;19.27;4.32;;;;;;;;;;5015362;28;20112;-68
2022/01/20 03:08:29;;;;;;;20.42;5.10;;;;;;;;;;5033012;28;20029;-68
2022/01/20 03:10:57;;;;;;;20.98;3.97;;;;;;;;;;5015095;28;20021;-68
2022/01/20 03:13:24;;;;;;;15.00;4.57;;;;;;;;;;5032758;28;20025;-67
2022/01/20 03:15:50;;;;;;;26.65;5.55;;;;;;;;;;5032867;28;20021;-67
2022/01/20 03:18:16;;;;;;;16.27;4.25;;;;;;;;;;5032797;28;20056;-68
2022/01/20 03:20:42;;;;;;;18.77;4.05;;;;;;;;;;5032899;28;20068;-69
2022/01/20 03:23:08;;;;;;;25.88;6.07;;;;;;;;;;5020677;28;20499;-68
2022/01/20 03:25:34;;;;;;;23.90;5.85;;;;;;;;;;5051398;28;20025;-68
2022/01/20 03:28:00;;;;;;;19.48;4.13;;;;;;;;;;5034646;28;20449;-68
2022/01/20 03:30:26;;;;;;;18.30;4.97;;;;;;;;;;5051795;28;20538;-68
2022/01/20 03:32:52;;;;;;;32.47;5.22;;;;;;;;;;5052088;28;20047;-68
2022/01/20 03:35:18;;;;;;;27.45;6.82;;;;;;;;;;5052399;28;20098;-68
2022/01/20 03:37:44;;;;;;;23.45;5.55;;;;;;;;;;5052349;28;20036;-68
2022/01/20 03:40:11;;;;;;;21.67;5.40;;;;;;;;;;5050872;28;20471;-69
2022/01/20 03:42:37;;;;;;;15.23;3.88;;;;;;;;;;5052096;28;20055;-68
2022/01/20 03:45:04;;;;;;;16.20;4.40;;;;;;;;;;5034057;28;20021;-68
2022/01/20 03:47:30;;;;;;;18.70;4.25;;;;;;;;;;5052124;28;20387;-69
2022/01/20 03:52:25;;;;;;;20.10;3.60;;;;;;;;;;5052271;28;20036;-68
2022/01/20 03:54:51;;;;;;;19.13;3.38;;;;;;;;;;5033939;28;20033;-69
2022/01/20 03:57:17;;;;;;;16.45;3.28;;;;;;;;;;5052053;28;20055;-68
2022/01/20 03:59:43;;;;;;;15.00;4.13;;;;;;;;;;5034036;28;20036;-67
2022/01/20 04:02:09;;;;;;;25.10;6.07;;;;;;;;;;5052054;28;20029;-67
2022/01/20 04:04:35;;;;;;;25.98;4.97;;;;;;;;;;5051997;28;20074;-67
2022/01/20 04:07:02;;;;;;;18.20;3.53;;;;;;;;;;5051936;28;20028;-68
2022/01/20 04:09:28;;;;;;;12.65;4.30;;;;;;;;;;5050309;28;20025;-67
2022/01/20 04:11:54;;;;;;;18.52;4.55;;;;;;;;;;5051871;28;20029;-68
2022/01/20 04:14:23;;;;;;;17.85;3.83;;;;;;;;;;5052725;28;20112;-69
2022/01/20 04:19:26;;;;;;;21.38;7.13;;;;;;;;;;5052146;28;20033;-69
2022/01/20 04:21:52;;;;;;;12.77;3.55;;;;;;;;;;5052349;28;20025;-68
2022/01/20 04:24:18;;;;;;;14.93;4.07;;;;;;;;;;5035759;28;20025;-67
2022/01/20 04:26:45;;;;;;;13.45;3.28;;;;;;;;;;5013876;28;20037;-69
2022/01/20 04:29:11;;;;;;;15.40;3.90;;;;;;;;;;5031597;28;20036;-68
2022/01/20 04:31:38;;;;;;;19.20;5.35;;;;;;;;;;5031664;28;20565;-70
2022/01/20 04:34:05;;;;;;;16.42;3.42;;;;;;;;;;5031436;28;20029;-68
2022/01/20 04:36:33;;;;;;;54.03;7.10;;;;;;;;;;5031697;28;20029;-67
2022/01/20 04:39:00;;;;;;;14.45;3.42;;;;;;;;;;5031553;28;20497;-67
2022/01/20 04:41:29;;;;;;;15.40;3.42;;;;;;;;;;5031825;28;20376;-68
2022/01/20 04:43:55;;;;;;;14.52;4.85;;;;;;;;;;5035357;28;20108;-69
2022/01/20 04:46:51;;;;;;;12.73;2.67;;;;;;;;;;5035481;28;20043;-67
2022/01/20 04:57:02;;;;;;;12.02;3.22;;;;;;;;;;5035288;28;20068;-67
2022/01/20 04:57:22;;;;;;;11.50;3.03;;;;;;;;;;5035357;28;20411;-69
2022/01/20 04:59:50;;;;;;;20.67;4.45;;;;;;;;;;5035315;28;20411;-69
2022/01/20 05:02:16;;;;;;;15.52;3.00;;;;;;;;;;5035268;28;20032;-68
2022/01/20 05:04:42;;;;;;;11.65;2.70;;;;;;;;;;5035047;28;20048;-68
2022/01/20 05:07:09;;;;;;;17.15;4.00;;;;;;;;;;5035075;28;20014;-69
2022/01/20 05:09:35;;;;;;;15.90;3.95;;;;;;;;;;5035289;28;20100;-68
2022/01/20 05:12:06;;;;;;;15.40;3.80;;;;;;;;;;5035345;28;20036;-69
2022/01/20 05:14:32;;;;;;;16.73;3.45;;;;;;;;;;5034907;28;20498;-68
2022/01/20 05:16:59;;;;;;;13.18;3.00;;;;;;;;;;5016991;28;20475;-68
2022/01/20 05:19:25;;;;;;;15.35;3.38;;;;;;;;;;5034919;28;20026;-68
2022/01/20 05:21:52;;;;;;;15.48;3.60;;;;;;;;;;5017039;28;20116;-68
2022/01/20 05:24:18;;;;;;;17.13;4.50;;;;;;;;;;5032564;28;20025;-69
2022/01/20 05:26:44;;;;;;;15.25;3.55;;;;;;;;;;5053454;28;20025;-66
2022/01/20 05:29:10;;;;;;;18.83;3.17;;;;;;;;;;5036925;28;20025;-68
2022/01/20 05:31:36;;;;;;;20.67;4.88;;;;;;;;;;5036997;28;20111;-68
2022/01/20 05:34:02;;;;;;;20.35;4.25;;;;;;;;;;5054309;28;20082;-69
2022/01/20 05:36:28;;;;;;;17.15;4.05;;;;;;;;;;5054632;28;20494;-68
2022/01/20 05:38:54;;;;;;;16.13;4.10;;;;;;;;;;5054860;28;20033;-69
2022/01/20 05:41:20;;;;;;;12.25;4.20;;;;;;;;;;5054630;28;20502;-68
2022/01/20 05:43:47;;;;;;;17.08;3.40;;;;;;;;;;5036576;28;20032;-68
2022/01/20 05:46:15;;;;;;;23.88;5.13;;;;;;;;;;5053236;28;20021;-68
2022/01/20 05:48:56;;;;;;;18.23;3.95;;;;;;;;;;5037408;28;20029;-69
2022/01/20 05:51:22;;;;;;;30.92;4.70;;;;;;;;;;5032950;28;20045;-71
2022/01/20 05:53:48;;;;;;;16.73;3.33;;;;;;;;;;5032652;28;20041;-71
2022/01/20 05:56:14;;;;;;;16.58;4.22;;;;;;;;;;5034468;28;20403;-71
2022/01/20 05:58:40;;;;;;;18.23;3.10;;;;;;;;;;5033487;28;20024;-70
2022/01/20 06:01:06;;;;;;;16.75;4.28;;;;;;;;;;5034532;28;20522;-71
2022/01/20 06:03:36;;;;;;;15.65;3.58;;;;;;;;;;5016181;28;20025;-72
2022/01/20 06:06:02;;;;;;;23.95;5.38;;;;;;;;;;5016757;28;20021;-71
2022/01/20 06:08:28;;;;;;;23.77;3.63;;;;;;;;;;5016531;28;20025;-70
2022/01/20 06:10:54;;;;;;;17.98;4.05;;;;;;;;;;5016629;28;20022;-70
2022/01/20 06:13:20;;;;;;;24.45;4.80;;;;;;;;;;5016053;28;20041;-71
2022/01/20 06:15:46;;;;;;;16.98;4.10;;;;;;;;;;5016329;28;20079;-71
2022/01/20 06:18:12;;;;;;;18.10;3.53;;;;;;;;;;5034058;28;20033;-71
2022/01/20 06:20:39;;;;;;;14.13;3.40;;;;;;;;;;5034056;28;20051;-71
2022/01/20 06:23:06;;;;;;;18.25;4.80;;;;;;;;;;5033868;28;20029;-71
2022/01/20 06:25:32;;;;;;;16.67;3.72;;;;;;;;;;5034318;28;20025;-71
2022/01/20 06:27:58;;;;;;;17.15;3.67;;;;;;;;;;5015790;28;20471;-71
2022/01/20 06:30:27;;;;;;;15.00;3.60;;;;;;;;;;5033961;28;20040;-71
2022/01/20 06:32:53;;;;;;;17.10;3.55;;;;;;;;;;5034049;28;20553;-70
2022/01/20 06:35:20;;;;;;;14.85;3.60;;;;;;;;;;5034436;28;20025;-70
2022/01/20 06:37:46;;;;;;;22.38;4.13;;;;;;;;;;5016673;28;20029;-71
2022/01/20 06:40:12;;;;;;;17.65;4.45;;;;;;;;;;5034117;28;20043;-72
2022/01/20 06:42:39;;;;;;;18.90;3.58;;;;;;;;;;5015913;28;20033;-72
2022/01/20 06:45:06;;;;;;;18.65;4.03;;;;;;;;;;5034090;28;20352;-71
2022/01/20 06:47:32;;;;;;;18.83;4.18;;;;;;;;;;5015699;28;20052;-68
2022/01/20 06:49:59;;;;;;;25.10;4.50;;;;;;;;;;5015474;28;20026;-70
2022/01/20 06:52:26;;;;;;;21.80;4.00;;;;;;;;;;5015758;28;20022;-69
2022/01/20 06:54:52;;;;;;;25.10;5.45;;;;;;;;;;5015721;28;20029;-69
2022/01/20 06:57:18;;;;;;;22.85;4.60;;;;;;;;;;5015636;28;20045;-69
2022/01/20 06:59:44;;;;;;;15.52;3.63;;;;;;;;;;5015561;28;20034;-70
2022/01/20 07:02:10;;;;;;;12.52;2.90;;;;;;;;;;5015539;28;20033;-74
2022/01/20 07:04:37;;;;;;;19.05;3.47;;;;;;;;;;5014870;28;20467;-73
2022/01/20 07:07:03;;;;;;;19.45;3.53;;;;;;;;;;5015302;28;20026;-75
2022/01/20 07:09:29;;;;;;;11.40;3.70;;;;;;;;;;5033069;28;20026;-74
2022/01/20 07:11:55;;;;;;;16.42;3.05;;;;;;;;;;5015452;28;20035;-72
2022/01/20 07:14:21;;;;;;;10.48;3.25;;;;;;;;;;5015230;28;20025;-72
2022/01/20 07:16:48;;;;;;;14.75;3.08;;;;;;;;;;5032847;28;20095;-74
2022/01/20 07:19:14;;;;;;;8.70;2.72;;;;;;;;;;5011074;28;20058;-71
2022/01/20 07:21:40;;;;;;;13.07;3.15;;;;;;;;;;5030058;28;20514;-70
2022/01/20 07:24:07;;;;;;;16.00;3.38;;;;;;;;;;5029212;28;20542;-70
2022/01/20 07:26:33;;;;;;;17.80;3.58;;;;;;;;;;5030850;28;20017;-69
2022/01/20 07:29:00;;;;;;;14.25;3.83;;;;;;;;;;5006894;28;20033;-71
2022/01/20 07:31:26;;;;;;;15.30;4.80;;;;;;;;;;5026182;28;20014;-71
2022/01/20 07:33:52;;;;;;;11.07;3.05;;;;;;;;;;5030600;28;20527;-70
2022/01/20 07:36:18;;;;;;;5.03;1.48;;;;;;;;;;5032281;28;20022;-69
2022/01/20 07:38:44;;;;;;;13.38;2.50;;;;;;;;;;5014728;28;20116;-69
2022/01/20 07:41:10;;;;;;;7.80;1.75;;;;;;;;;;5014744;28;20111;-69
2022/01/20 07:43:36;;;;;;;7.22;1.92;;;;;;;;;;5032816;28;20077;-69
2022/01/20 07:46:02;;;;;;;13.63;1.73;;;;;;;;;;5033844;28;20029;-71
2022/01/20 07:48:28;;;;;;;5.75;1.38;;;;;;;;;;5033541;28;20472;-71
2022/01/20 07:50:54;;;;;;;5.85;2.28;;;;;;;;;;5031288;28;20040;-70
2022/01/20 07:53:20;;;;;;;7.95;1.80;;;;;;;;;;5033353;28;20025;-70
2022/01/20 07:55:46;;;;;;;6.20;1.80;;;;;;;;;;5032710;28;20041;-70
2022/01/20 07:58:12;;;;;;;5.88;1.75;;;;;;;;;;5031593;28;20030;-70
2022/01/20 08:00:38;;;;;;;10.50;2.72;;;;;;;;;;5032033;28;20026;-70
2022/01/20 08:03:04;;;;;;;13.35;2.72;;;;;;;;;;5031850;28;20475;-71
2022/01/20 08:05:30;;;;;;;14.45;2.83;;;;;;;;;;5032075;28;20465;-71
2022/01/20 08:07:56;;;;;;;11.60;2.40;;;;;;;;;;5014261;28;20022;-71
2022/01/20 08:10:22;;;;;;;10.82;1.67;;;;;;;;;;5031815;28;20044;-70
2022/01/20 08:12:48;;;;;;;14.63;2.97;;;;;;;;;;5031749;28;20018;-71
2022/01/20 08:15:15;;;;;;;7.70;1.35;;;;;;;;;;5031730;28;20402;-70
2022/01/20 08:17:41;;;;;;;9.20;1.88;;;;;;;;;;5031357;28;20396;-71
2022/01/20 08:20:08;;;;;;;8.90;2.60;;;;;;;;;;5031792;28;20033;-75
2022/01/20 08:22:34;;;;;;;10.82;2.10;;;;;;;;;;5029532;28;20033;-73
2022/01/20 08:25:05;;;;;;;17.35;3.70;;;;;;;;;;5028178;28;20549;-73
2022/01/20 08:27:31;;;;;;;14.40;2.40;;;;;;;;;;5011995;28;20061;-72
2022/01/20 08:29:57;;;;;;;7.72;1.83;;;;;;;;;;5029799;28;20087;-73
2022/01/20 08:32:23;;;;;;;11.68;2.40;;;;;;;;;;5030057;28;20032;-72
2022/01/20 08:34:49;;;;;;;14.20;2.58;;;;;;;;;;5030326;28;20026;-73
2022/01/20 08:37:15;;;;;;;14.35;2.15;;;;;;;;;;5030428;28;20029;-71
2022/01/20 08:39:44;;;;;;;9.85;2.53;;;;;;;;;;5031651;28;20112;-71
2022/01/20 08:42:11;;;;;;;13.05;2.78;;;;;;;;;;5031555;28;20021;-73
2022/01/20 08:44:38;;;;;;;8.85;2.45;;;;;;;;;;5013890;28;20430;-71
2022/01/20 08:47:09;;;;;;;7.18;2.38;;;;;;;;;;5031473;28;20025;-72
2022/01/20 08:49:35;;;;;;;;;;;;;;;;;;5014014;28;20124;-71
2022/01/20 08:52:01;;;;;;;16.02;2.45;;;;;;;;;;5013941;28;20362;-72
2022/01/20 08:54:27;;;;;;;13.30;2.33;;;;;;;;;;5031071;28;20112;-70
2022/01/20 08:56:53;;;;;;;13.02;2.00;;;;;;;;;;5031654;28;20029;-72
2022/01/20 08:59:19;;;;;;;10.07;2.38;;;;;;;;;;5031131;28;20029;-72
2022/01/20 09:01:45;;;;;;;11.90;2.60;;;;;;;;;;5031025;28;20056;-72
2022/01/20 09:04:11;;;;;;;10.00;2.20;;;;;;;;;;5013228;28;20105;-72
2022/01/20 09:06:37;;;;;;;14.60;2.05;;;;;;;;;;5031494;28;20112;-72
2022/01/20 09:09:03;;;;;;;7.75;1.88;;;;;;;;;;5031232;28;20025;-72
2022/01/20 09:11:37;;;;;;;13.00;2.50;;;;;;;;;;5031580;28;20025;-72
2022/01/20 09:16:48;;;;;;;12.13;1.92;;;;;;;;;;5032107;28;20537;-73
2022/01/20 09:19:14;;;;;;;12.00;2.70;;;;;;;;;;5011194;28;20029;-72
2022/01/20 09:21:40;;;;;;;13.30;2.10;;;;;;;;;;5011382;28;20037;-73
2022/01/20 09:24:06;;;;;;;9.95;1.80;;;;;;;;;;5010026;28;20026;-72
2022/01/20 09:26:32;;;;;;;8.93;2.45;;;;;;;;;;5011471;28;20038;-73
2022/01/20 09:28:58;;;;;;;15.10;2.08;;;;;;;;;;5012161;28;20392;-72
2022/01/20 09:31:26;;;;;;;11.38;2.13;;;;;;;;;;5014965;28;20120;-73
2022/01/20 09:33:53;;;;;;;6.28;1.50;;;;;;;;;;5014678;28;20534;-72
2022/01/20 09:36:20;;;;;;;12.45;2.50;;;;;;;;;;5019687;28;20029;-73
2022/01/20 09:38:46;;;;;;;12.68;2.15;;;;;;;;;;5034914;28;20037;-72
2022/01/20 09:41:12;;;;;;;15.77;3.10;;;;;;;;;;5034750;28;20036;-71
2022/01/20 09:43:38;;;;;;;9.15;1.77;;;;;;;;;;5034540;28;20026;-73
2022/01/20 09:46:04;;;;;;;15.48;2.92;;;;;;;;;;5034552;28;20021;-71
2022/01/20 09:48:32;;;;;;;14.30;2.80;;;;;;;;;;5016660;28;20022;-72
2022/01/20 09:51:00;;;;;;;8.18;2.20;;;;;;;;;;5016395;28;20033;-72
2022/01/20 09:53:26;;;;;;;16.60;2.28;;;;;;;;;;5034396;28;20033;-72
2022/01/20 09:55:53;;;;;;;12.02;2.55;;;;;;;;;;5034175;28;20025;-72
2022/01/20 09:58:19;;;;;;;11.68;2.50;;;;;;;;;;5034310;28;20040;-73
2022/01/20 10:00:46;;;;;;;19.60;3.70;;;;;;;;;;5034218;28;20471;-73
2022/01/20 10:03:16;;;;;;;15.65;2.60;;;;;;;;;;5033714;28;20056;-73
2022/01/20 10:05:42;;;;;;;14.13;2.78;;;;;;;;;;5034263;28;20476;-73
2022/01/20 10:08:14;;;;;;;18.33;2.92;;;;;;;;;;5034311;28;20025;-72
2022/01/20 10:10:49;;;;;;;18.88;3.17;;;;;;;;;;5034185;28;20026;-73
2022/01/20 10:13:16;;;;;;;19.67;3.13;;;;;;;;;;5034220;28;20029;-73
2022/01/20 10:15:42;;;;;;;10.55;2.80;;;;;;;;;;5034187;28;20040;-73
2022/01/20 10:18:09;;;;;;;12.52;2.17;;;;;;;;;;5034144;28;20052;-72
2022/01/20 10:20:36;;;;;;;22.58;3.65;;;;;;;;;;5034254;28;20414;-72
2022/01/20 10:23:02;;;;;;;15.15;2.80;;;;;;;;;;5033737;28;20163;-72
2022/01/20 10:25:33;;;;;;;14.00;2.70;;;;;;;;;;5034106;28;20052;-73
2022/01/20 10:27:59;;;;;;;15.40;2.65;;;;;;;;;;5015776;28;20075;-73
2022/01/20 10:30:27;;;;;;;10.68;2.60;;;;;;;;;;5033875;28;20099;-72
2022/01/20 10:32:55;;;;;;;20.85;3.88;;;;;;;;;;5034180;28;20030;-72
2022/01/20 10:35:26;;;;;;;15.07;3.10;;;;;;;;;;5034369;28;20064;-72
2022/01/20 10:38:00;;;;;;;17.67;3.33;;;;;;;;;;5033980;28;20517;-73
2022/01/20 10:40:27;;;;;;;11.60;2.25;;;;;;;;;;5033262;28;20403;-72
2022/01/20 10:42:53;;;;;;;13.23;3.30;;;;;;;;;;5033709;28;20021;-72
2022/01/20 10:45:25;;;;;;;13.65;2.92;;;;;;;;;;5015812;28;20658;-71
2022/01/20 10:47:56;;;;;;;14.90;2.72;;;;;;;;;;5033465;28;20220;-72
2022/01/20 10:50:24;;;;;;;15.30;2.92;;;;;;;;;;5015732;28;20053;-72
2022/01/20 10:52:52;;;;;;;17.40;3.38;;;;;;;;;;5033142;28;20026;-72
2022/01/20 10:55:38;;;;;;;15.18;4.93;;;;;;;;;;5033477;28;20032;-72
2022/01/20 10:58:12;;;;;;;11.05;2.20;;;;;;;;;;5032812;28;20502;-72
2022/01/20 11:00:43;;;;;;;14.20;2.88;;;;;;;;;;5033501;28;20050;-72
2022/01/20 11:03:08;;;;;;;18.20;3.37;;;;;;;;;;5032815;28;20035;-72
2022/01/20 11:05:35;;;;;;;18.42;2.17;;;;;;;;;;5015252;28;20347;-72
2022/01/20 11:08:01;;;;;;;12.27;3.03;;;;;;;;;;5033119;28;20096;-71
2022/01/20 11:10:27;;;;;;;12.30;2.30;;;;;;;;;;5015320;28;20486;-72
2022/01/20 11:12:53;;;;;;;15.57;2.65;;;;;;;;;;5015222;28;20108;-71
2022/01/20 11:15:20;;;;;;;13.50;3.20;;;;;;;;;;5032652;28;20058;-71
2022/01/20 11:17:51;;;;;;;15.07;2.45;;;;;;;;;;5032922;28;20033;-72
2022/01/20 11:20:21;;;;;;;13.50;2.00;;;;;;;;;;5013909;28;20033;-72
2022/01/20 11:22:59;;;;;;;14.95;2.95;;;;;;;;;;5032712;28;20045;-72
2022/01/20 11:25:26;;;;;;;14.00;2.88;;;;;;;;;;5032788;28;20021;-72
2022/01/20 11:28:01;;;;;;;17.15;2.67;;;;;;;;;;5032696;28;20029;-72
2022/01/20 11:30:29;;;;;;;14.55;3.30;;;;;;;;;;5032263;28;20041;-71
2022/01/20 11:32:59;;;;;;;14.77;2.72;;;;;;;;;;5032221;28;20028;-73
2022/01/20 11:35:35;;;;;;;20.33;2.87;;;;;;;;;;5031164;28;20033;-72
2022/01/20 11:38:01;;;;;;;13.00;3.38;;;;;;;;;;5032077;28;20091;-72
2022/01/20 11:40:27;;;;;;;12.80;2.60;;;;;;;;;;5030637;28;20037;-72
2022/01/20 11:43:04;;;;;;;15.82;3.05;;;;;;;;;;5032071;28;20035;-72
2022/01/20 11:45:35;;;;;;;12.45;2.45;;;;;;;;;;5032408;28;20025;-71
2022/01/20 11:48:21;;;;;;;16.85;3.83;;;;;;;;;;5030846;28;20180;-71
2022/01/20 11:50:48;;;;;;;11.60;3.42;;;;;;;;;;5070151;22;20498;-68
2022/01/20 11:53:18;;;;;;;18.35;2.65;;;;;;;;;;5070321;28;20039;-68
2022/01/20 11:55:44;;;;;;;18.08;2.75;;;;;;;;;;5071498;28;20074;-68
2022/01/20 11:58:14;;;;;;;19.38;2.75;;;;;;;;;;5070296;28;20032;-68
2022/01/20 12:00:41;;;;;;;13.23;2.67;;;;;;;;;;5084810;28;20108;-71
2022/01/20 12:03:11;;;;;;;18.00;3.28;;;;;;;;;;5083906;28;20028;-70
2022/01/20 12:05:37;;;;;;;18.75;2.47;;;;;;;;;;5090773;28;20020;-69
2022/01/20 12:08:15;;;;;;;19.10;2.55;;;;;;;;;;5072939;28;20024;-70
2022/01/20 12:10:43;;;;;;;14.45;3.47;;;;;;;;;;5091085;28;20500;-70
2022/01/20 12:13:16;;;;;;;23.23;2.85;;;;;;;;;;5090770;28;20089;-70
2022/01/20 12:15:52;;;;;;;17.42;2.88;;;;;;;;;;5092190;28;20020;-70
2022/01/20 12:18:18;;;;;;;13.73;2.70;;;;;;;;;;5092008;28;20034;-70
2022/01/20 12:20:44;;;;;;;16.17;2.58;;;;;;;;;;5091835;28;20118;-69
2022/01/20 12:23:11;;;;;;;11.35;2.47;;;;;;;;;;5091425;28;20073;-69
2022/01/20 12:25:37;;;;;;;12.45;2.45;;;;;;;;;;5091844;28;20035;-70
2022/01/20 12:28:04;;;;;;;17.02;3.05;;;;;;;;;;5091877;28;20025;-70
2022/01/20 12:30:30;;;;;;;9.48;2.53;;;;;;;;;;5065239;28;20025;-69
2022/01/20 12:32:56;;;;;;;11.32;2.30;;;;;;;;;;5069710;28;20465;-69
2022/01/20 12:35:22;;;;;;;13.13;2.75;;;;;;;;;;5071289;28;20027;-69
2022/01/20 12:37:48;;;;;;;18.25;2.67;;;;;;;;;;5088489;28;20028;-70
2022/01/20 12:40:19;;;;;;;21.10;2.92;;;;;;;;;;5091123;28;20023;-69
2022/01/20 12:42:45;;;;;;;15.48;2.72;;;;;;;;;;5091004;28;20024;-67
2022/01/20 12:48:12;;;;;;;8.80;1.80;;;;;;;;;;5091224;28;20035;-70
2022/01/20 12:50:38;;;;;;;11.85;3.20;;;;;;;;;;5102036;28;20052;-69
2022/01/20 12:53:04;;;;;;;18.67;3.47;;;;;;;;;;5110212;28;20145;-68
2022/01/20 12:55:30;;;;;;;16.83;2.70;;;;;;;;;;5110481;28;20024;-70
2022/01/20 12:57:59;;;;;;;11.32;2.70;;;;;;;;;;5110488;28;20059;-70
2022/01/20 13:00:25;;;;;;;16.83;2.88;;;;;;;;;;5092465;28;20028;-71
2022/01/20 13:02:51;;;;;;;18.05;2.75;;;;;;;;;;5103148;28;20020;-67
2022/01/20 13:05:19;;;;;;;10.73;2.20;;;;;;;;;;5095427;28;20039;-71
2022/01/20 13:07:51;;;;;;;16.80;2.67;;;;;;;;;;5095401;28;20029;-69
2022/01/20 13:10:22;;;;;;;13.80;2.42;;;;;;;;;;5095137;28;20028;-70
2022/01/20 13:12:51;;;;;;;21.50;3.83;;;;;;;;;;5076895;28;20389;-70
2022/01/20 13:15:17;;;;;;;15.32;3.95;;;;;;;;;;5077217;28;20027;-69
2022/01/20 13:17:43;;;;;;;16.83;3.72;;;;;;;;;;5094944;28;20024;-71
2022/01/20 13:20:19;;;;;;;10.45;2.30;;;;;;;;;;5095658;28;20061;-70
2022/01/20 13:22:55;;;;;;;12.73;2.30;;;;;;;;;;5094769;28;20396;-68
2022/01/20 13:25:26;;;;;;;14.75;2.60;;;;;;;;;;5093077;28;20662;-70
2022/01/20 13:27:54;;;;;;;12.85;2.40;;;;;;;;;;5094644;28;20020;-71
2022/01/20 13:30:25;;;;;;;11.68;2.28;;;;;;;;;;5095980;28;20020;-71
2022/01/20 13:32:51;;;;;;;10.45;3.03;;;;;;;;;;5095379;28;20393;-70
2022/01/20 13:35:18;;;;;;;17.05;2.70;;;;;;;;;;5094898;28;20035;-69
2022/01/20 13:37:47;;;;;;;12.35;2.28;;;;;;;;;;5093421;28;20051;-72
2022/01/20 13:40:19;;;;;;;6.55;1.65;;;;;;;;;;5105148;28;20024;-71
2022/01/20 13:42:46;;;;;;;15.82;2.50;;;;;;;;;;5094179;28;20552;-69
2022/01/20 13:45:17;;;;;;;16.27;2.53;;;;;;;;;;5094755;28;20409;-71
2022/01/20 13:47:59;;;;;;;11.50;2.88;;;;;;;;;;5095318;28;20386;-70
2022/01/20 13:50:31;;;;;;;17.83;2.40;;;;;;;;;;5074855;28;20029;-71
2022/01/20 13:52:59;;;;;;;9.93;2.63;;;;;;;;;;5073844;28;20028;-71
2022/01/20 13:55:25;;;;;;;12.35;2.35;;;;;;;;;;5073505;28;20056;-72
2022/01/20 13:57:51;;;;;;;15.35;2.47;;;;;;;;;;5073921;28;20071;-72
2022/01/20 14:00:21;;;;;;;12.25;3.35;;;;;;;;;;5074310;28;20033;-71
2022/01/20 14:02:49;;;;;;;7.90;2.72;;;;;;;;;;5074256;28;20024;-71
2022/01/20 14:05:22;;;;;;;6.80;1.75;;;;;;;;;;5074498;28;20071;-71
2022/01/20 14:07:48;;;;;;;8.65;2.20;;;;;;;;;;5074029;28;20074;-69
2022/01/20 14:10:15;;;;;;;12.95;2.13;;;;;;;;;;5073968;28;20024;-71
2022/01/20 14:12:41;;;;;;;11.07;2.03;;;;;;;;;;5073922;28;20028;-69
2022/01/20 14:15:07;;;;;;;14.73;4.38;;;;;;;;;;5073315;28;20543;-69
2022/01/20 14:17:38;;;;;;;13.63;2.25;;;;;;;;;;5073764;28;20385;-70
2022/01/20 14:20:10;;;;;;;15.38;2.85;;;;;;;;;;5073940;28;20024;-71
2022/01/20 14:22:37;;;;;;;13.20;2.33;;;;;;;;;;5073848;28;20036;-71
2022/01/20 14:25:04;;;;;;;11.52;2.28;;;;;;;;;;5073336;28;20027;-71
2022/01/20 14:27:30;;;;;;;12.13;2.78;;;;;;;;;;5055972;28;20387;-72
2022/01/20 14:29:56;;;;;;;10.25;2.78;;;;;;;;;;5055246;28;20031;-69
2022/01/20 14:32:22;;;;;;;13.95;3.03;;;;;;;;;;5073764;28;20469;-71
2022/01/20 14:34:49;;;;;;;14.05;2.95;;;;;;;;;;5072013;28;20107;-72
2022/01/20 14:37:15;;;;;;;15.15;2.78;;;;;;;;;;5072066;28;20099;-70
2022/01/20 14:39:42;;;;;;;15.65;2.78;;;;;;;;;;5073470;28;20029;-71
2022/01/20 14:42:09;;;;;;;18.60;3.58;;;;;;;;;;5073479;28;20482;-71
2022/01/20 14:44:36;;;;;;;17.58;3.40;;;;;;;;;;5071929;28;20029;-71
2022/01/20 14:47:03;;;;;;;12.38;2.35;;;;;;;;;;5073459;28;20025;-69
2022/01/20 14:49:29;;;;;;;18.08;3.17;;;;;;;;;;5073420;28;20028;-71
2022/01/20 14:51:55;;;;;;;11.15;2.13;;;;;;;;;;5072045;28;20036;-71
2022/01/20 14:54:21;;;;;;;8.60;2.22;;;;;;;;;;5072708;28;20092;-69
2022/01/20 14:56:47;;;;;;;14.60;3.28;;;;;;;;;;5073063;28;20490;-70
2022/01/20 14:59:13;;;;;;;14.10;3.70;;;;;;;;;;5072831;28;20483;-70
2022/01/20 15:01:39;;;;;;;14.38;2.83;;;;;;;;;;5071298;28;20067;-72
2022/01/20 15:04:06;;;;;;;11.77;2.22;;;;;;;;;;5072528;28;20437;-70
2022/01/20 15:06:32;;;;;;;18.55;3.60;;;;;;;;;;5072789;28;20024;-72
2022/01/20 15:08:58;;;;;;;10.85;2.72;;;;;;;;;;5072725;28;20021;-72
2022/01/20 15:11:24;;;;;;;17.55;3.08;;;;;;;;;;5072980;28;20024;-70
2022/01/20 15:13:50;;;;;;;15.77;2.72;;;;;;;;;;5072861;28;20028;-69
2022/01/20 15:16:16;;;;;;;10.93;2.08;;;;;;;;;;5071893;28;20358;-71
2022/01/20 15:18:42;;;;;;;15.15;3.45;;;;;;;;;;5071314;28;20133;-72
2022/01/20 15:21:08;;;;;;;10.35;2.85;;;;;;;;;;5088508;28;20020;-69
2022/01/20 15:23:34;;;;;;;10.13;2.50;;;;;;;;;;5092254;28;20634;-70
2022/01/20 15:26:00;;;;;;;11.80;2.65;;;;;;;;;;5092289;28;20659;-70
2022/01/20 15:28:30;;;;;;;12.25;2.60;;;;;;;;;;5090561;28;20024;-71
2022/01/20 15:30:56;;;;;;;11.35;2.30;;;;;;;;;;5092502;28;20027;-70
2022/01/20 15:33:22;;;;;;;12.90;2.58;;;;;;;;;;5092836;28;20506;-71
2022/01/20 15:35:48;;;;;;;10.68;2.72;;;;;;;;;;5092855;28;20058;-70
2022/01/20 15:38:14;;;;;;;11.23;2.70;;;;;;;;;;5092563;28;20032;-69
2022/01/20 15:40:40;;;;;;;9.60;2.30;;;;;;;;;;5092754;28;20394;-70
2022/01/20 15:43:06;;;;;;;11.48;2.55;;;;;;;;;;5090180;28;20371;-72